sensor_id;sensor_type;location;lat;lon;timestamp;pressure;altitude;pressure_sealevel;temperature;humidity
13486;BME280;6815;59.336;17.998;2023-07-29T00:00:43;52180.97;;;-145.37;81.15
13486;BME280;6815;59.336;17.998;2023-07-29T00:03:09;52143.06;;;-145.37;81.79
13486;BME280;6815;59.336;17.998;2023-07-29T00:05:34;52180.97;;;-145.37;81.57
13486;BME280;6815;59.336;17.998;2023-07-29T00:08:00;52200.94;;;-145.37;81.40
13486;BME280;6815;59.336;17.998;2023-07-29T00:10:26;52204.94;;;-145.37;82.09
13486;BME280;6815;59.336;17.998;2023-07-29T00:12:51;52216.91;;;-145.37;81.69
13486;BME280;6815;59.336;17.998;2023-07-29T00:15:17;52196.94;;;-145.37;81.66
13486;BME280;6815;59.336;17.998;2023-07-29T00:17:42;52306.75;;;-145.37;82.70
13486;BME280;6815;59.336;17.998;2023-07-29T00:20:07;52230.88;;;-145.37;82.00
13486;BME280;6815;59.336;17.998;2023-07-29T00:22:33;52200.94;;;-145.37;82.29
13486;BME280;6815;59.336;17.998;2023-07-29T00:24:58;52192.97;;;-145.37;81.71
13486;BME280;6815;59.336;17.998;2023-07-29T00:27:24;52214.91;;;-145.37;81.99
13486;BME280;6815;59.336;17.998;2023-07-29T00:29:50;52220.91;;;-145.37;81.60
13486;BME280;6815;59.336;17.998;2023-07-29T00:32:16;52177.00;;;-145.37;81.37
13486;BME280;6815;59.336;17.998;2023-07-29T00:34:41;52198.94;;;-145.37;80.12
13486;BME280;6815;59.336;17.998;2023-07-29T00:37:07;52198.94;;;-145.37;80.93
13486;BME280;6815;59.336;17.998;2023-07-29T00:39:32;52178.97;;;-145.37;81.47
13486;BME280;6815;59.336;17.998;2023-07-29T00:41:58;52186.97;;;-145.37;81.16
13486;BME280;6815;59.336;17.998;2023-07-29T00:44:23;52218.91;;;-145.37;81.03
13486;BME280;6815;59.336;17.998;2023-07-29T00:46:53;52204.94;;;-145.37;81.02
13486;BME280;6815;59.336;17.998;2023-07-29T00:49:19;52188.97;;;-145.37;81.37
13486;BME280;6815;59.336;17.998;2023-07-29T00:51:46;52218.91;;;-145.37;81.32
13486;BME280;6815;59.336;17.998;2023-07-29T00:54:12;52198.94;;;-145.37;81.30
13486;BME280;6815;59.336;17.998;2023-07-29T00:56:38;52175.00;;;-145.37;81.33
13486;BME280;6815;59.336;17.998;2023-07-29T00:59:03;52230.88;;;-145.37;80.99
13486;BME280;6815;59.336;17.998;2023-07-29T01:01:30;52232.88;;;-145.37;81.36
13486;BME280;6815;59.336;17.998;2023-07-29T01:03:56;52208.94;;;-145.37;81.64
13486;BME280;6815;59.336;17.998;2023-07-29T01:09:05;52248.84;;;-145.37;81.71
13486;BME280;6815;59.336;17.998;2023-07-29T01:17:05;52208.94;;;-145.37;81.66
13486;BME280;6815;59.336;17.998;2023-07-29T01:19:59;52165.00;;;-145.37;81.68
13486;BME280;6815;59.336;17.998;2023-07-29T01:22:27;52212.91;;;-145.37;81.98
13486;BME280;6815;59.336;17.998;2023-07-29T01:24:53;52175.00;;;-145.37;82.84
13486;BME280;6815;59.336;17.998;2023-07-29T01:27:18;52216.91;;;-145.37;82.54
13486;BME280;6815;59.336;17.998;2023-07-29T01:29:43;52167.00;;;-145.37;82.32
13486;BME280;6815;59.336;17.998;2023-07-29T01:37:52;52212.91;;;-145.37;82.58
13486;BME280;6815;59.336;17.998;2023-07-29T01:40:21;52214.91;;;-145.37;82.87
13486;BME280;6815;59.336;17.998;2023-07-29T01:42:47;52226.91;;;-145.37;82.86
13486;BME280;6815;59.336;17.998;2023-07-29T01:45:13;52196.94;;;-145.37;82.75
13486;BME280;6815;59.336;17.998;2023-07-29T01:47:39;52218.91;;;-145.37;83.06
13486;BME280;6815;59.336;17.998;2023-07-29T01:50:07;52226.91;;;-145.37;83.23
13486;BME280;6815;59.336;17.998;2023-07-29T01:52:32;52228.88;;;-145.37;83.53
13486;BME280;6815;59.336;17.998;2023-07-29T01:54:58;52188.97;;;-145.37;83.34
13486;BME280;6815;59.336;17.998;2023-07-29T01:57:23;52214.91;;;-145.37;83.23
13486;BME280;6815;59.336;17.998;2023-07-29T01:59:48;52246.84;;;-145.37;83.11
13486;BME280;6815;59.336;17.998;2023-07-29T02:02:14;52178.97;;;-145.37;83.14
13486;BME280;6815;59.336;17.998;2023-07-29T02:04:39;52139.06;;;-145.37;83.21
13486;BME280;6815;59.336;17.998;2023-07-29T02:07:05;52210.91;;;-145.37;83.01
13486;BME280;6815;59.336;17.998;2023-07-29T02:09:30;52175.00;;;-145.37;83.44
13486;BME280;6815;59.336;17.998;2023-07-29T02:11:57;52230.88;;;-145.37;83.81
13486;BME280;6815;59.336;17.998;2023-07-29T02:14:22;52218.91;;;-145.37;83.44
13486;BME280;6815;59.336;17.998;2023-07-29T02:16:48;52178.97;;;-145.37;83.32
13486;BME280;6815;59.336;17.998;2023-07-29T02:19:14;52220.91;;;-145.37;83.08
13486;BME280;6815;59.336;17.998;2023-07-29T02:21:39;52186.97;;;-145.37;82.92
13486;BME280;6815;59.336;17.998;2023-07-29T02:24:05;52188.97;;;-145.37;82.84
13486;BME280;6815;59.336;17.998;2023-07-29T02:26:30;52196.94;;;-145.37;82.92
13486;BME280;6815;59.336;17.998;2023-07-29T02:28:56;52200.94;;;-145.37;83.45
13486;BME280;6815;59.336;17.998;2023-07-29T02:31:22;52204.94;;;-145.37;83.10
13486;BME280;6815;59.336;17.998;2023-07-29T02:33:48;52216.91;;;-145.37;83.28
13486;BME280;6815;59.336;17.998;2023-07-29T02:36:14;52224.91;;;-145.37;83.07
13486;BME280;6815;59.336;17.998;2023-07-29T02:38:41;52228.88;;;-145.37;82.85
13486;BME280;6815;59.336;17.998;2023-07-29T02:41:07;52192.97;;;-145.37;83.03
13486;BME280;6815;59.336;17.998;2023-07-29T02:43:35;52200.94;;;-145.37;82.47
13486;BME280;6815;59.336;17.998;2023-07-29T02:46:00;52186.97;;;-145.37;82.29
13486;BME280;6815;59.336;17.998;2023-07-29T02:48:26;52224.91;;;-145.37;82.53
13486;BME280;6815;59.336;17.998;2023-07-29T02:50:51;52196.94;;;-145.37;83.10
13486;BME280;6815;59.336;17.998;2023-07-29T02:53:17;52184.97;;;-145.37;82.13
13486;BME280;6815;59.336;17.998;2023-07-29T02:55:42;52212.91;;;-145.37;82.18
13486;BME280;6815;59.336;17.998;2023-07-29T02:58:07;52226.91;;;-145.37;82.44
13486;BME280;6815;59.336;17.998;2023-07-29T03:00:33;52200.94;;;-145.37;81.93
13486;BME280;6815;59.336;17.998;2023-07-29T03:02:59;52228.88;;;-145.37;82.39
13486;BME280;6815;59.336;17.998;2023-07-29T03:05:26;52208.94;;;-145.37;82.08
13486;BME280;6815;59.336;17.998;2023-07-29T03:07:52;52204.94;;;-145.37;82.17
13486;BME280;6815;59.336;17.998;2023-07-29T03:10:17;52204.94;;;-145.37;82.04
13486;BME280;6815;59.336;17.998;2023-07-29T03:12:43;52206.94;;;-145.37;81.91
13486;BME280;6815;59.336;17.998;2023-07-29T03:15:08;52200.94;;;-145.37;81.65
13486;BME280;6815;59.336;17.998;2023-07-29T03:17:34;52238.88;;;-145.37;81.62
13486;BME280;6815;59.336;17.998;2023-07-29T03:19:59;52248.84;;;-145.37;81.21
13486;BME280;6815;59.336;17.998;2023-07-29T03:22:24;52198.94;;;-145.37;81.16
13486;BME280;6815;59.336;17.998;2023-07-29T03:24:50;52244.84;;;-145.37;80.48
13486;BME280;6815;59.336;17.998;2023-07-29T03:27:15;52220.91;;;-145.37;80.55
13486;BME280;6815;59.336;17.998;2023-07-29T03:29:41;52202.94;;;-145.37;81.01
13486;BME280;6815;59.336;17.998;2023-07-29T03:32:06;52230.88;;;-145.37;80.93
13486;BME280;6815;59.336;17.998;2023-07-29T03:34:32;52204.94;;;-145.37;81.00
13486;BME280;6815;59.336;17.998;2023-07-29T03:36:58;52204.94;;;-145.37;80.77
13486;BME280;6815;59.336;17.998;2023-07-29T03:39:24;52212.91;;;-145.37;80.87
13486;BME280;6815;59.336;17.998;2023-07-29T03:41:49;52218.91;;;-145.37;80.60
13486;BME280;6815;59.336;17.998;2023-07-29T03:44:14;52220.91;;;-145.37;80.32
13486;BME280;6815;59.336;17.998;2023-07-29T03:46:40;52224.91;;;-145.37;79.84
13486;BME280;6815;59.336;17.998;2023-07-29T03:49:05;52198.94;;;-145.37;79.48
13486;BME280;6815;59.336;17.998;2023-07-29T03:51:31;52278.78;;;-145.37;79.39
13486;BME280;6815;59.336;17.998;2023-07-29T03:53:56;52200.94;;;-145.37;79.42
13486;BME280;6815;59.336;17.998;2023-07-29T03:56:21;52226.91;;;-145.37;79.84
13486;BME280;6815;59.336;17.998;2023-07-29T03:58:47;52232.88;;;-145.37;79.37
13486;BME280;6815;59.336;17.998;2023-07-29T04:01:15;52198.94;;;-145.37;79.21
13486;BME280;6815;59.336;17.998;2023-07-29T04:03:40;52165.00;;;-145.37;79.93
13486;BME280;6815;59.336;17.998;2023-07-29T04:06:06;52202.94;;;-145.37;79.21
13486;BME280;6815;59.336;17.998;2023-07-29T04:08:31;52240.88;;;-145.37;79.18
13486;BME280;6815;59.336;17.998;2023-07-29T04:10:57;52234.88;;;-145.37;79.02
13486;BME280;6815;59.336;17.998;2023-07-29T04:13:22;52220.91;;;-145.37;78.96
13486;BME280;6815;59.336;17.998;2023-07-29T04:15:48;52188.97;;;-145.37;79.54
13486;BME280;6815;59.336;17.998;2023-07-29T04:18:13;52212.91;;;-145.37;78.70
13486;BME280;6815;59.336;17.998;2023-07-29T04:20:39;52196.94;;;-145.37;79.43
13486;BME280;6815;59.336;17.998;2023-07-29T04:23:04;52194.94;;;-145.37;80.24
13486;BME280;6815;59.336;17.998;2023-07-29T04:25:29;52212.91;;;-145.37;79.00
13486;BME280;6815;59.336;17.998;2023-07-29T04:27:55;52218.91;;;-145.37;78.77
13486;BME280;6815;59.336;17.998;2023-07-29T04:30:22;52196.94;;;-145.37;78.71
13486;BME280;6815;59.336;17.998;2023-07-29T04:32:48;52248.84;;;-145.37;79.27
13486;BME280;6815;59.336;17.998;2023-07-29T04:35:13;52202.94;;;-145.37;79.51
13486;BME280;6815;59.336;17.998;2023-07-29T04:37:40;52252.84;;;-145.37;78.63
13486;BME280;6815;59.336;17.998;2023-07-29T04:40:06;52190.97;;;-145.37;78.67
13486;BME280;6815;59.336;17.998;2023-07-29T04:42:31;52224.91;;;-145.37;78.43
13486;BME280;6815;59.336;17.998;2023-07-29T04:44:57;52206.94;;;-145.37;78.56
13486;BME280;6815;59.336;17.998;2023-07-29T04:47:22;52188.97;;;-145.37;79.46
13486;BME280;6815;59.336;17.998;2023-07-29T04:49:48;52194.94;;;-145.37;79.26
13486;BME280;6815;59.336;17.998;2023-07-29T04:52:14;52242.88;;;-145.37;79.34
13486;BME280;6815;59.336;17.998;2023-07-29T04:54:40;52188.97;;;-145.37;79.49
13486;BME280;6815;59.336;17.998;2023-07-29T04:57:06;52200.94;;;-145.37;80.69
13486;BME280;6815;59.336;17.998;2023-07-29T04:59:31;52240.88;;;-145.37;80.54
13486;BME280;6815;59.336;17.998;2023-07-29T05:01:57;52218.91;;;-145.37;80.91
13486;BME280;6815;59.336;17.998;2023-07-29T05:04:23;52202.94;;;-145.37;81.12
13486;BME280;6815;59.336;17.998;2023-07-29T05:06:49;52190.97;;;-145.37;81.42
13486;BME280;6815;59.336;17.998;2023-07-29T05:09:15;52196.94;;;-145.37;80.42
13486;BME280;6815;59.336;17.998;2023-07-29T05:11:41;52326.72;;;-145.37;78.53
13486;BME280;6815;59.336;17.998;2023-07-29T05:14:07;52242.88;;;-145.37;77.33
13486;BME280;6815;59.336;17.998;2023-07-29T05:16:34;52182.97;;;-145.37;75.93
13486;BME280;6815;59.336;17.998;2023-07-29T05:18:59;52198.94;;;-145.37;75.04
13486;BME280;6815;59.336;17.998;2023-07-29T05:21:24;52196.94;;;-145.37;72.96
13486;BME280;6815;59.336;17.998;2023-07-29T05:23:50;52161.03;;;-145.37;70.98
13486;BME280;6815;59.336;17.998;2023-07-29T05:26:15;52173.00;;;-145.37;70.84
13486;BME280;6815;59.336;17.998;2023-07-29T05:28:40;52123.09;;;-145.37;69.57
13486;BME280;6815;59.336;17.998;2023-07-29T05:31:06;52192.97;;;-145.37;68.62
13486;BME280;6815;59.336;17.998;2023-07-29T05:33:31;52175.00;;;-145.37;66.85
13486;BME280;6815;59.336;17.998;2023-07-29T05:35:57;52165.00;;;-145.37;65.68
13486;BME280;6815;59.336;17.998;2023-07-29T05:38:22;52200.94;;;-145.37;65.45
13486;BME280;6815;59.336;17.998;2023-07-29T05:40:48;52151.03;;;-145.37;63.85
13486;BME280;6815;59.336;17.998;2023-07-29T05:43:14;52147.03;;;-145.37;62.29
13486;BME280;6815;59.336;17.998;2023-07-29T05:45:40;52127.09;;;-145.37;61.56
13486;BME280;6815;59.336;17.998;2023-07-29T05:48:05;52180.97;;;-145.37;60.70
13486;BME280;6815;59.336;17.998;2023-07-29T05:50:30;52159.03;;;-145.37;60.54
13486;BME280;6815;59.336;17.998;2023-07-29T05:52:56;52125.09;;;-145.37;59.52
13486;BME280;6815;59.336;17.998;2023-07-29T05:55:21;52147.03;;;-145.37;58.33
13486;BME280;6815;59.336;17.998;2023-07-29T05:57:46;52153.03;;;-145.37;58.34
13486;BME280;6815;59.336;17.998;2023-07-29T06:00:12;52141.06;;;-145.37;56.98
13486;BME280;6815;59.336;17.998;2023-07-29T06:02:38;52105.13;;;-145.37;56.20
13486;BME280;6815;59.336;17.998;2023-07-29T06:05:03;52149.03;;;-145.37;55.67
13486;BME280;6815;59.336;17.998;2023-07-29T06:07:29;52137.06;;;-145.37;55.19
13486;BME280;6815;59.336;17.998;2023-07-29T06:09:57;52131.06;;;-145.37;55.60
13486;BME280;6815;59.336;17.998;2023-07-29T06:12:23;52141.06;;;-145.37;54.26
13486;BME280;6815;59.336;17.998;2023-07-29T06:14:48;52180.97;;;-145.37;54.07
13486;BME280;6815;59.336;17.998;2023-07-29T06:17:14;52171.00;;;-145.37;53.91
13486;BME280;6815;59.336;17.998;2023-07-29T06:19:39;52139.06;;;-145.37;54.02
13486;BME280;6815;59.336;17.998;2023-07-29T06:22:04;52292.78;;;-145.37;53.86
13486;BME280;6815;59.336;17.998;2023-07-29T06:24:31;52133.06;;;-145.37;53.89
13486;BME280;6815;59.336;17.998;2023-07-29T06:26:56;52153.03;;;-145.37;53.40
13486;BME280;6815;59.336;17.998;2023-07-29T06:29:21;52153.03;;;-145.37;53.16
13486;BME280;6815;59.336;17.998;2023-07-29T06:31:47;52131.06;;;-145.37;52.87
13486;BME280;6815;59.336;17.998;2023-07-29T06:34:12;52125.09;;;-145.37;52.81
13486;BME280;6815;59.336;17.998;2023-07-29T06:36:37;52133.06;;;-145.37;52.72
13486;BME280;6815;59.336;17.998;2023-07-29T06:39:03;52119.09;;;-145.37;52.51
13486;BME280;6815;59.336;17.998;2023-07-29T06:41:28;52155.03;;;-145.37;52.76
13486;BME280;6815;59.336;17.998;2023-07-29T06:43:54;52125.09;;;-145.37;53.08
13486;BME280;6815;59.336;17.998;2023-07-29T06:46:19;52095.16;;;-145.37;52.35
13486;BME280;6815;59.336;17.998;2023-07-29T06:48:45;52171.00;;;-145.37;51.96
13486;BME280;6815;59.336;17.998;2023-07-29T06:51:10;52182.97;;;-145.37;52.16
13486;BME280;6815;59.336;17.998;2023-07-29T06:53:35;52125.09;;;-145.37;51.75
13486;BME280;6815;59.336;17.998;2023-07-29T06:56:01;52129.06;;;-145.37;51.88
13486;BME280;6815;59.336;17.998;2023-07-29T06:58:27;52119.09;;;-145.37;51.44
13486;BME280;6815;59.336;17.998;2023-07-29T07:00:52;52129.06;;;-145.37;52.08
13486;BME280;6815;59.336;17.998;2023-07-29T07:03:17;52101.13;;;-145.37;52.44
13486;BME280;6815;59.336;17.998;2023-07-29T07:05:43;52141.06;;;-145.37;51.54
13486;BME280;6815;59.336;17.998;2023-07-29T07:08:08;52165.00;;;-145.37;51.70
13486;BME280;6815;59.336;17.998;2023-07-29T07:10:34;52135.06;;;-145.37;51.58
13486;BME280;6815;59.336;17.998;2023-07-29T07:12:59;52139.06;;;-145.37;51.23
13486;BME280;6815;59.336;17.998;2023-07-29T07:15:25;52169.00;;;-145.37;51.39
13486;BME280;6815;59.336;17.998;2023-07-29T07:17:51;52125.09;;;-145.37;51.12
13486;BME280;6815;59.336;17.998;2023-07-29T07:20:18;52109.13;;;-145.37;50.84
13486;BME280;6815;59.336;17.998;2023-07-29T07:22:43;52153.03;;;-145.37;50.86
13486;BME280;6815;59.336;17.998;2023-07-29T07:25:09;52196.94;;;-145.37;51.41
13486;BME280;6815;59.336;17.998;2023-07-29T07:27:36;52147.03;;;-145.37;51.37
13486;BME280;6815;59.336;17.998;2023-07-29T07:30:03;52101.13;;;-145.37;50.74
13486;BME280;6815;59.336;17.998;2023-07-29T07:32:28;52177.00;;;-145.37;50.76
13486;BME280;6815;59.336;17.998;2023-07-29T07:34:53;52159.03;;;-145.37;50.84
13486;BME280;6815;59.336;17.998;2023-07-29T07:37:19;52155.03;;;-145.37;50.43
13486;BME280;6815;59.336;17.998;2023-07-29T07:39:44;52109.13;;;-145.37;50.75
13486;BME280;6815;59.336;17.998;2023-07-29T07:42:10;52194.94;;;-145.37;50.55
13486;BME280;6815;59.336;17.998;2023-07-29T07:44:36;52186.97;;;-145.37;50.35
13486;BME280;6815;59.336;17.998;2023-07-29T07:47:02;52135.06;;;-145.37;50.44
13486;BME280;6815;59.336;17.998;2023-07-29T07:49:27;52113.09;;;-145.37;50.23
13486;BME280;6815;59.336;17.998;2023-07-29T07:51:53;52157.03;;;-145.37;50.10
13486;BME280;6815;59.336;17.998;2023-07-29T07:54:18;52145.03;;;-145.37;50.10
13486;BME280;6815;59.336;17.998;2023-07-29T07:56:44;52184.97;;;-145.37;49.98
13486;BME280;6815;59.336;17.998;2023-07-29T07:59:09;52141.06;;;-145.37;49.94
13486;BME280;6815;59.336;17.998;2023-07-29T08:01:36;52137.06;;;-145.37;49.67
13486;BME280;6815;59.336;17.998;2023-07-29T08:04:03;52145.03;;;-145.37;50.02
13486;BME280;6815;59.336;17.998;2023-07-29T08:06:30;52139.06;;;-145.37;49.69
13486;BME280;6815;59.336;17.998;2023-07-29T08:08:56;52159.03;;;-145.37;49.39
13486;BME280;6815;59.336;17.998;2023-07-29T08:11:22;52220.91;;;-145.37;49.40
13486;BME280;6815;59.336;17.998;2023-07-29T08:13:47;52129.06;;;-145.37;49.76
13486;BME280;6815;59.336;17.998;2023-07-29T08:16:12;52151.03;;;-145.37;50.08
13486;BME280;6815;59.336;17.998;2023-07-29T08:18:38;52161.03;;;-145.37;50.54
13486;BME280;6815;59.336;17.998;2023-07-29T08:21:04;52083.16;;;-145.37;50.44
13486;BME280;6815;59.336;17.998;2023-07-29T08:23:31;52184.97;;;-145.37;50.56
13486;BME280;6815;59.336;17.998;2023-07-29T08:25:58;52161.03;;;-145.37;50.43
13486;BME280;6815;59.336;17.998;2023-07-29T08:28:30;52175.00;;;-145.37;50.67
13486;BME280;6815;59.336;17.998;2023-07-29T08:30:56;52143.06;;;-145.37;50.42
13486;BME280;6815;59.336;17.998;2023-07-29T08:33:22;52131.06;;;-145.37;50.58
13486;BME280;6815;59.336;17.998;2023-07-29T08:35:47;52165.00;;;-145.37;50.48
13486;BME280;6815;59.336;17.998;2023-07-29T08:38:12;52141.06;;;-145.37;50.00
13486;BME280;6815;59.336;17.998;2023-07-29T08:40:45;52113.09;;;-145.37;50.10
13486;BME280;6815;59.336;17.998;2023-07-29T08:43:11;52169.00;;;-145.37;49.77
13486;BME280;6815;59.336;17.998;2023-07-29T08:45:38;52180.97;;;-145.37;49.69
13486;BME280;6815;59.336;17.998;2023-07-29T08:48:08;52149.03;;;-145.37;49.46
13486;BME280;6815;59.336;17.998;2023-07-29T08:50:36;52151.03;;;-145.37;49.75
13486;BME280;6815;59.336;17.998;2023-07-29T08:53:03;52155.03;;;-145.37;49.09
13486;BME280;6815;59.336;17.998;2023-07-29T08:55:29;52137.06;;;-145.37;49.47
13486;BME280;6815;59.336;17.998;2023-07-29T08:57:55;52182.97;;;-145.37;49.58
13486;BME280;6815;59.336;17.998;2023-07-29T09:00:21;52141.06;;;-145.37;49.83
13486;BME280;6815;59.336;17.998;2023-07-29T09:02:47;52165.00;;;-145.37;50.15
13486;BME280;6815;59.336;17.998;2023-07-29T09:05:12;52137.06;;;-145.37;48.93
13486;BME280;6815;59.336;17.998;2023-07-29T09:07:38;52159.03;;;-145.37;49.00
13486;BME280;6815;59.336;17.998;2023-07-29T09:10:04;52165.00;;;-145.37;49.19
13486;BME280;6815;59.336;17.998;2023-07-29T09:12:29;52153.03;;;-145.37;49.05
13486;BME280;6815;59.336;17.998;2023-07-29T09:14:55;52169.00;;;-145.37;49.31
13486;BME280;6815;59.336;17.998;2023-07-29T09:17:20;52159.03;;;-145.37;49.51
13486;BME280;6815;59.336;17.998;2023-07-29T09:19:50;52141.06;;;-145.37;49.78
13486;BME280;6815;59.336;17.998;2023-07-29T09:22:20;52157.03;;;-145.37;49.83
13486;BME280;6815;59.336;17.998;2023-07-29T09:24:46;52186.97;;;-145.37;50.66
13486;BME280;6815;59.336;17.998;2023-07-29T09:27:32;52153.03;;;-145.37;49.97
13486;BME280;6815;59.336;17.998;2023-07-29T09:30:03;52180.97;;;-145.37;50.16
13486;BME280;6815;59.336;17.998;2023-07-29T09:32:30;52131.06;;;-145.37;48.95
13486;BME280;6815;59.336;17.998;2023-07-29T09:34:55;52141.06;;;-145.37;48.28
13486;BME280;6815;59.336;17.998;2023-07-29T09:37:21;52145.03;;;-145.37;48.34
13486;BME280;6815;59.336;17.998;2023-07-29T09:39:49;52173.00;;;-145.37;48.03
13486;BME280;6815;59.336;17.998;2023-07-29T09:42:22;52107.13;;;-145.37;47.83
13486;BME280;6815;59.336;17.998;2023-07-29T09:44:50;52161.03;;;-145.37;47.49
13486;BME280;6815;59.336;17.998;2023-07-29T09:47:23;52292.78;;;-145.37;47.71
13486;BME280;6815;59.336;17.998;2023-07-29T09:49:51;52143.06;;;-145.37;47.99
13486;BME280;6815;59.336;17.998;2023-07-29T09:52:19;52121.09;;;-145.37;47.45
13486;BME280;6815;59.336;17.998;2023-07-29T09:54:45;52153.03;;;-145.37;47.27
13486;BME280;6815;59.336;17.998;2023-07-29T09:57:14;52129.06;;;-145.37;46.87
13486;BME280;6815;59.336;17.998;2023-07-29T09:59:42;52165.00;;;-145.37;47.22
13486;BME280;6815;59.336;17.998;2023-07-29T10:02:16;52210.91;;;-145.37;47.17
13486;BME280;6815;59.336;17.998;2023-07-29T10:04:42;52184.97;;;-145.37;47.22
13486;BME280;6815;59.336;17.998;2023-07-29T10:07:09;52117.09;;;-145.37;46.61
13486;BME280;6815;59.336;17.998;2023-07-29T10:09:36;52125.09;;;-145.37;46.47
13486;BME280;6815;59.336;17.998;2023-07-29T10:12:01;52159.03;;;-145.37;46.24
13486;BME280;6815;59.336;17.998;2023-07-29T10:14:28;52133.06;;;-145.37;47.01
13486;BME280;6815;59.336;17.998;2023-07-29T10:16:56;52159.03;;;-145.37;45.88
13486;BME280;6815;59.336;17.998;2023-07-29T10:19:24;52149.03;;;-145.37;45.52
13486;BME280;6815;59.336;17.998;2023-07-29T10:21:51;52153.03;;;-145.37;45.87
13486;BME280;6815;59.336;17.998;2023-07-29T10:24:19;52153.03;;;-145.37;46.73
13486;BME280;6815;59.336;17.998;2023-07-29T10:26:50;52155.03;;;-145.37;46.97
13486;BME280;6815;59.336;17.998;2023-07-29T10:29:19;52163.00;;;-145.37;46.89
13486;BME280;6815;59.336;17.998;2023-07-29T10:31:46;52103.13;;;-145.37;47.25
13486;BME280;6815;59.336;17.998;2023-07-29T10:34:13;52139.06;;;-145.37;48.10
13486;BME280;6815;59.336;17.998;2023-07-29T10:36:40;52165.00;;;-145.37;47.96
13486;BME280;6815;59.336;17.998;2023-07-29T10:39:09;52119.09;;;-145.37;47.70
13486;BME280;6815;59.336;17.998;2023-07-29T10:41:55;52107.13;;;-145.37;47.46
13486;BME280;6815;59.336;17.998;2023-07-29T10:47:20;52155.03;;;-145.37;46.18
13486;BME280;6815;59.336;17.998;2023-07-29T10:49:48;52165.00;;;-145.37;46.45
13486;BME280;6815;59.336;17.998;2023-07-29T10:52:15;52117.09;;;-145.37;46.07
13486;BME280;6815;59.336;17.998;2023-07-29T10:57:15;52139.06;;;-145.37;45.60
13486;BME280;6815;59.336;17.998;2023-07-29T10:59:42;52155.03;;;-145.37;45.25
13486;BME280;6815;59.336;17.998;2023-07-29T11:02:18;52178.97;;;-145.37;44.85
13486;BME280;6815;59.336;17.998;2023-07-29T11:04:50;52149.03;;;-145.37;44.38
13486;BME280;6815;59.336;17.998;2023-07-29T11:17:39;52109.13;;;-145.37;43.54
13486;BME280;6815;59.336;17.998;2023-07-29T11:20:05;52119.09;;;-145.37;44.21
13486;BME280;6815;59.336;17.998;2023-07-29T11:22:32;52177.00;;;-145.37;43.74
13486;BME280;6815;59.336;17.998;2023-07-29T11:24:58;52123.09;;;-145.37;43.78
13486;BME280;6815;59.336;17.998;2023-07-29T11:27:23;52123.09;;;-145.37;44.45
13486;BME280;6815;59.336;17.998;2023-07-29T11:29:49;52157.03;;;-145.37;43.24
13486;BME280;6815;59.336;17.998;2023-07-29T11:32:16;52113.09;;;-145.37;42.30
13486;BME280;6815;59.336;17.998;2023-07-29T11:34:42;52165.00;;;-145.37;41.96
13486;BME280;6815;59.336;17.998;2023-07-29T11:37:11;52147.03;;;-145.37;41.34
13486;BME280;6815;59.336;17.998;2023-07-29T11:39:44;52133.06;;;-145.37;41.08
13486;BME280;6815;59.336;17.998;2023-07-29T11:42:19;52135.06;;;-145.37;41.46
13486;BME280;6815;59.336;17.998;2023-07-29T11:44:45;52155.03;;;-145.37;42.22
13486;BME280;6815;59.336;17.998;2023-07-29T11:47:12;52125.09;;;-145.37;40.87
13486;BME280;6815;59.336;17.998;2023-07-29T11:49:41;52129.06;;;-145.37;40.51
13486;BME280;6815;59.336;17.998;2023-07-29T11:52:10;52133.06;;;-145.37;40.63
13486;BME280;6815;59.336;17.998;2023-07-29T11:54:39;52099.13;;;-145.37;41.06
13486;BME280;6815;59.336;17.998;2023-07-29T11:57:10;52143.06;;;-145.37;41.16
13486;BME280;6815;59.336;17.998;2023-07-29T11:59:37;52278.78;;;-145.37;40.43
13486;BME280;6815;59.336;17.998;2023-07-29T12:02:10;52147.03;;;-145.37;40.40
13486;BME280;6815;59.336;17.998;2023-07-29T12:04:37;52161.03;;;-145.37;40.31
13486;BME280;6815;59.336;17.998;2023-07-29T12:07:04;52093.16;;;-145.37;40.57
13486;BME280;6815;59.336;17.998;2023-07-29T12:09:29;52131.06;;;-145.37;40.57
13486;BME280;6815;59.336;17.998;2023-07-29T12:11:56;52111.13;;;-145.37;39.97
13486;BME280;6815;59.336;17.998;2023-07-29T12:14:21;52093.16;;;-145.37;40.57
13486;BME280;6815;59.336;17.998;2023-07-29T12:16:50;52188.97;;;-145.37;41.16
13486;BME280;6815;59.336;17.998;2023-07-29T12:19:17;52133.06;;;-145.37;40.67
13486;BME280;6815;59.336;17.998;2023-07-29T12:21:44;52135.06;;;-145.37;41.35
13486;BME280;6815;59.336;17.998;2023-07-29T12:24:11;52123.09;;;-145.37;41.37
13486;BME280;6815;59.336;17.998;2023-07-29T12:26:37;52121.09;;;-145.37;41.04
13486;BME280;6815;59.336;17.998;2023-07-29T12:29:13;52103.13;;;-145.37;40.83
13486;BME280;6815;59.336;17.998;2023-07-29T12:31:39;52135.06;;;-145.37;40.70
13486;BME280;6815;59.336;17.998;2023-07-29T12:34:05;52131.06;;;-145.37;40.03
13486;BME280;6815;59.336;17.998;2023-07-29T12:39:20;52085.16;;;-145.37;39.29
13486;BME280;6815;59.336;17.998;2023-07-29T12:41:48;52113.09;;;-145.37;39.46
13486;BME280;6815;59.336;17.998;2023-07-29T12:44:14;52097.13;;;-145.37;39.81
13486;BME280;6815;59.336;17.998;2023-07-29T12:46:39;52264.81;;;-145.37;39.63
13486;BME280;6815;59.336;17.998;2023-07-29T12:49:05;52145.03;;;-145.37;39.59
13486;BME280;6815;59.336;17.998;2023-07-29T12:51:31;52145.03;;;-145.37;40.27
13486;BME280;6815;59.336;17.998;2023-07-29T12:53:56;52113.09;;;-145.37;39.77
13486;BME280;6815;59.336;17.998;2023-07-29T12:56:22;52113.09;;;-145.37;40.04
13486;BME280;6815;59.336;17.998;2023-07-29T12:58:47;52111.13;;;-145.37;39.68
13486;BME280;6815;59.336;17.998;2023-07-29T13:01:13;52157.03;;;-145.37;39.67
13486;BME280;6815;59.336;17.998;2023-07-29T13:03:42;52210.91;;;-145.37;39.91
13486;BME280;6815;59.336;17.998;2023-07-29T13:06:07;52105.13;;;-145.37;40.09
13486;BME280;6815;59.336;17.998;2023-07-29T13:08:33;52109.13;;;-145.37;38.58